Home > Products > Valid Products > TAF

000
FTUS44 KFWD 311700
TAFDFW
TAF
KDFW 311729Z 3118/0124 02017KT P6SM FEW035
     FM010000 03008KT P6SM SKC
     FM011500 13008KT P6SM SCT250=



000
FTUS44 KFWD 311700
TAFFTW
TAF
KFTW 311729Z 3118/0118 01017KT P6SM FEW035
     FM010000 02008KT P6SM FEW250
     FM011500 13008KT P6SM SCT250=



000
FTUS44 KFWD 311700
TAFACT
TAF
KACT 311729Z 3118/0118 01016KT P6SM SKC
     FM010000 01007KT P6SM FEW250
     FM011500 11007KT P6SM SKC=



000
FTUS44 KFWD 311400 AAA
TAFACT
TAF AMD
KACT 311458Z 3115/0112 01016KT P6SM SKC
     FM010000 01008KT P6SM FEW250=



000
FTUS44 KFWD 311400 AAA
TAFDFW
TAF AMD
KDFW 311458Z 3115/0118 36016G26KT P6SM FEW035
     FM010000 02008KT P6SM SKC=



000
FTUS44 KFWD 311400 AAA
TAFFTW
TAF AMD
KFTW 311458Z 3115/0112 36015G25KT P6SM FEW035
     FM010000 02008KT P6SM FEW250=



000
FTUS44 KFWD 311100
TAFACT
TAF
KACT 311138Z 3112/0112 34008KT P6SM SKC
     FM311500 01016KT P6SM SKC
     FM010000 01008KT P6SM FEW250=



000
FTUS44 KFWD 311100
TAFDFW
TAF
KDFW 311138Z 3112/0118 34012KT P6SM SKC
     FM311400 36016G26KT P6SM FEW035
     FM010000 02008KT P6SM SKC=



000
FTUS44 KFWD 311100
TAFFTW
TAF
KFTW 311138Z 3112/0112 34012KT P6SM SKC
     FM311400 36016KT P6SM FEW035
     FM010000 02008KT P6SM FEW250=



000
FTUS44 KFWD 310800 AAA
TAFFTW
TAF AMD
KFTW 310857Z 3109/0106 34008KT P6SM SKC
     FM311400 36015KT P6SM FEW035
     FM010000 02008KT P6SM SKC=



000
FTUS44 KFWD 310800 AAA
TAFDFW
TAF AMD
KDFW 310857Z 3109/0112 34010KT P6SM SKC
     FM311400 36015G25KT P6SM FEW035
     FM010000 02008KT P6SM SKC=



000
FTUS44 KFWD 310800 AAA
TAFACT
TAF AMD
KACT 310857Z 3109/0106 34008KT P6SM SKC
     FM311500 01016KT P6SM SKC
     FM010000 01008KT P6SM SKC=



000
FTUS44 KFWD 310500
TAFFTW
TAF
KFTW 310520Z 3106/0106 36007KT P6SM SKC
     FM311400 36015KT P6SM FEW035
     FM010000 02008KT P6SM SKC=



000
FTUS44 KFWD 310500
TAFACT
TAF
KACT 310520Z 3106/0106 35007KT P6SM BKN110
     FM311500 01016KT P6SM SKC
     FM010000 01008KT P6SM SKC=



000
FTUS44 KFWD 310500
TAFDFW
TAF
KDFW 310520Z 3106/0112 36007KT P6SM SKC
     FM311400 36015G25KT P6SM FEW035
     FM010000 02008KT P6SM SKC=



000
FTUS44 KFWD 310300 AAA
TAFFTW
TAF AMD
KFTW 310302Z 3103/3124 36007KT P6SM SKC
     FM311400 36015KT P6SM FEW035=



000
FTUS44 KFWD 310300 AAA
TAFACT
TAF AMD
KACT 310302Z 3103/3124 35007KT P6SM BKN110
     FM311500 01016KT P6SM SKC=



000
FTUS44 KFWD 310300 AAA
TAFDFW
TAF AMD
KDFW 310302Z 3103/0106 36007KT P6SM SKC
     FM311400 36015G25KT P6SM FEW035
     FM010000 36010KT P6SM SKC=



000
FTUS44 KFWD 302300
TAFFTW
TAF
KFTW 302320Z 3100/3124 36010KT P6SM SCT050
     FM311400 36015KT P6SM FEW035=



000
FTUS44 KFWD 302300
TAFACT
TAF
KACT 302320Z 3100/3124 VRB04KT P6SM SCT050
     FM310100 36005KT P6SM VCSH BKN050
     FM310500 35010KT P6SM SKC
     FM311500 01016KT P6SM SKC=



000
FTUS44 KFWD 302300
TAFDFW
TAF
KDFW 302320Z 3100/0106 36010KT P6SM SCT050
     FM311400 36015G25KT P6SM FEW035
     FM010000 36010KT P6SM SKC=



000
FTUS44 KFWD 302000 AAB
TAFACT
TAF AMD
KACT 302057Z 3021/3118 VRB03KT P6SM VCSH BKN050
     FM310100 35010KT P6SM SCT050
     FM311600 01015KT P6SM SKC=



000
FTUS44 KFWD 302000 AAA
TAFFTW
TAF AMD
KFTW 302057Z 3021/3118 VRB04KT P6SM VCSH BKN040
     FM302300 35010KT P6SM FEW060
     FM311400 36015G25KT P6SM SKC=



000
FTUS44 KFWD 302000 AAA
TAFDFW
TAF AMD
KDFW 302057Z 3021/3124 VRB04KT P6SM VCSH BKN050
     FM302300 35010KT P6SM FEW060
     FM311400 36015G25KT P6SM SKC=



000
FTUS44 KFWD 301800 AAA
TAFACT
TAF AMD
KACT 301846Z 3019/3118 15006KT P6SM VCSH BKN050
     FM310300 35010KT P6SM SCT050
     FM311600 01015KT P6SM SKC=



000
FTUS44 KFWD 301700
TAFFTW
TAF
KFTW 301736Z 3018/3118 19009KT P6SM FEW050
     FM302100 24005KT P6SM VCSH BKN050
     FM302300 35010KT P6SM FEW060
     FM311400 36015G25KT P6SM SKC=



000
FTUS44 KFWD 301700
TAFACT
TAF
KACT 301736Z 3018/3118 15006KT P6SM BKN050
     FM302300 10004KT P6SM VCSH BKN050
     FM310300 35010KT P6SM SCT050
     FM311600 01015KT P6SM SKC=



000
FTUS44 KFWD 301700
TAFDFW
TAF
KDFW 301736Z 3018/3124 19009KT P6SM FEW050
     FM302100 24005KT P6SM VCSH BKN050
     FM302300 35010KT P6SM FEW060
     FM311400 36015G25KT P6SM SKC=



000
FTUS44 KFWD 301700
TAFACT
TAF
KACT 301736Z 3018/3118 15006KT P6SM BKN050
     FM302300 10004KT P6SM VCSH BKN050
     FM310300 35010KT P6SM SCT050
     FM311600 01015KT P6SM SKC=



000
FTUS44 KFWD 301700
TAFDFW
TAF
KDFW 301736Z 3018/3124 19009KT P6SM FEW050
     FM302100 24005KT P6SM VCSH BKN050
     FM302300 35010KT P6SM FEW060
     FM311400 36015G25KT P6SM SKC=



000
FTUS44 KFWD 301700
TAFFTW
TAF
KFTW 301736Z 3018/3118 19009KT P6SM FEW050
     FM302100 24005KT P6SM VCSH BKN050
     FM302300 35010KT P6SM FEW060
     FM311400 36015G25KT P6SM SKC=



000
FTUS44 KFWD 301500 AAA
TAFFTW
TAF AMD
KFTW 301508Z 3015/3112 16006KT P6SM FEW050
     FM302100 24005KT P6SM VCSH BKN050
     FM310000 35010KT P6SM SKC=



000
FTUS44 KFWD 301500 AAA
TAFACT
TAF AMD
KACT 301508Z 3015/3112 15005KT P6SM BKN050
     FM302300 21004KT P6SM VCSH BKN050
     FM310300 35010KT P6SM SCT050=



000
FTUS44 KFWD 301500 AAA
TAFDFW
TAF AMD
KDFW 301508Z 3015/3118 17008KT P6SM FEW050
     FM302100 24005KT P6SM VCSH BKN050
     FM310000 35010KT P6SM SKC
     FM311400 36015G25KT P6SM SKC=



000
FTUS44 KFWD 301100
TAFDFW
TAF
KDFW 301124Z 3012/3118 16006KT P6SM SKC
     FM302100 24005KT P6SM VCSH BKN050
     FM310200 35010KT P6SM SKC
     FM311400 36015G25KT P6SM SKC=



000
FTUS44 KFWD 301100
TAFFTW
TAF
KFTW 301124Z 3012/3112 16006KT P6SM SKC
     FM302100 24005KT P6SM VCSH BKN050
     FM310200 35010KT P6SM SKC=



000
FTUS44 KFWD 301100
TAFACT
TAF
KACT 301124Z 3012/3112 15005KT P6SM FEW015 SCT060
     FM302300 21004KT P6SM VCSH BKN050
     FM310400 35010KT P6SM SCT050=



000
FTUS44 KFWD 300900 AAA
TAFACT
TAF AMD
KACT 300923Z 3009/3106 15005KT P6SM SKC
     FM302300 06006KT P6SM BKN050
     FM310400 35010KT P6SM SCT050=



000
FTUS44 KFWD 300900 AAA
TAFDFW
TAF AMD
KDFW 300923Z 3009/3112 15006KT P6SM SKC
     FM302100 26007KT P6SM BKN050
     FM310100 35010KT P6SM SKC=



000
FTUS44 KFWD 300900 AAA
TAFFTW
TAF AMD
KFTW 300923Z 3009/3106 14006KT P6SM SKC
     FM302100 25007KT P6SM BKN050
     FM310100 35011KT P6SM SKC=



000
FTUS44 KFWD 300500
TAFDFW
TAF
KDFW 300530Z 3006/3112 15007KT P6SM SKC
     FM302100 26007KT P6SM BKN050
     FM310100 35010KT P6SM SKC=



000
FTUS44 KFWD 300500
TAFACT
TAF
KACT 300530Z 3006/3106 13006KT P6SM SKC
     FM302300 06006KT P6SM BKN050
     FM310400 35010KT P6SM SCT050=



000
FTUS44 KFWD 300500
TAFFTW
TAF
KFTW 300530Z 3006/3106 14007KT P6SM SKC
     FM302100 25007KT P6SM BKN050
     FM310100 35011KT P6SM SKC=



000
FTUS44 KFWD 300300 AAA
TAFFTW
TAF AMD
KFTW 300300Z 3003/3024 12007KT P6SM SKC
     FM302000 26008KT P6SM SCT250=



000
FTUS44 KFWD 300300 AAA
TAFDFW
TAF AMD
KDFW 300300Z 3003/3106 12007KT P6SM SKC
     FM302000 26007KT P6SM SCT250
     FM310400 35010KT P6SM SCT250=



000
FTUS44 KFWD 300300 AAA
TAFACT
TAF AMD
KACT 300300Z 3003/3024 09007KT P6SM SKC
     FM300900 14007KT P6SM SKC
     FM302000 26008KT P6SM SCT250=



000
FTUS44 KFWD 292300
TAFFTW
TAF
KFTW 292328Z 3000/3024 12007KT P6SM SKC
     FM302000 26008KT P6SM SCT250=



000
FTUS44 KFWD 292300
TAFACT
TAF
KACT 292328Z 3000/3024 09007KT P6SM SKC
     FM300900 14007KT P6SM SKC
     FM302000 26008KT P6SM SCT250=



000
FTUS44 KFWD 292300
TAFDFW
TAF
KDFW 292328Z 3000/3106 12007KT P6SM SKC
     FM302000 26007KT P6SM SCT250
     FM310400 35010KT P6SM SCT250=



000
FTUS44 KFWD 292000 AAA
TAFFTW
TAF AMD
KFTW 292050Z 2921/3018 11009KT P6SM SKC
     FM300600 12006KT P6SM SKC=



000
FTUS44 KFWD 292000 AAA
TAFACT
TAF AMD
KACT 292050Z 2921/3018 08009KT P6SM SKC
     FM301600 15006KT P6SM SKC=



000
FTUS44 KFWD 292000 AAA
TAFDFW
TAF AMD
KDFW 292050Z 2921/3024 08007KT P6SM SKC
     FM300500 12005KT P6SM SKC
     FM302100 26010KT P6SM SCT070=



000
FTUS44 KFWD 291700
TAFACT
TAF
KACT 291735Z 2918/3018 04009KT P6SM SKC
     FM301600 15006KT P6SM SKC=



000
FTUS44 KFWD 291700
TAFDFW
TAF
KDFW 291735Z 2918/3024 08009KT P6SM SKC
     FM300500 12005KT P6SM SKC
     FM302100 26010KT P6SM SCT070=



000
FTUS44 KFWD 291700
TAFFTW
TAF
KFTW 291735Z 2918/3018 08009KT P6SM SKC
     FM300600 12006KT P6SM SKC=



000
FTUS44 KFWD 291600 AAC
TAFACT
TAF AMD
KACT 291632Z 2917/3012 04008KT P6SM SKC=



000
FTUS44 KFWD 291600 AAC
TAFACT
TAF AMD
KACT 291632Z 2917/3012 04008KT P6SM SKC=



000
FTUS44 KFWD 291500 AAB
TAFACT
TAF AMD
KACT 291508Z 2915/3012 02008KT P6SM BKN040
      TEMPO 2915/2917 OVC015
     FM291700 05008KT P6SM SCT060=



000
FTUS44 KFWD 291500 AAA
TAFFTW
TAF AMD
KFTW 291508Z 2915/3012 07009KT P6SM SKC
     FM300600 14006KT P6SM SKC=



000
FTUS44 KFWD 291500 AAA
TAFDFW
TAF AMD
KDFW 291508Z 2915/3018 07009KT P6SM SKC
     FM300600 14006KT P6SM SKC=



000
FTUS44 KFWD 291300 AAA
TAFACT
TAF AMD
KACT 291340Z 2914/3012 02008KT P6SM BKN040
      TEMPO 2914/2917 OVC012
     FM291700 05008KT P6SM SCT060=



000
FTUS44 KFWD 291100
TAFDFW
TAF
KDFW 291123Z 2912/3018 02007KT P6SM SKC
     FM291800 07008KT P6SM SKC
     FM300600 14006KT P6SM SKC=



000
FTUS44 KFWD 291100
TAFACT
TAF
KACT 291123Z 2912/3012 02008KT P6SM BKN050
     FM291800 05008KT P6SM SCT060=



000
FTUS44 KFWD 291100
TAFFTW
TAF
KFTW 291123Z 2912/3012 02007KT P6SM SKC
     FM291800 07007KT P6SM SKC
     FM300600 14006KT P6SM SKC=



000
FTUS44 KFWD 290900 AAA
TAFDFW
TAF AMD
KDFW 290904Z 2909/3012 02009KT P6SM SCT050
     FM292000 07005KT P6SM SKC
     FM300600 14006KT P6SM SKC=



000
FTUS44 KFWD 290900 AAA
TAFFTW
TAF AMD
KFTW 290904Z 2909/3006 02008KT P6SM SCT050
     FM292000 07005KT P6SM SKC=



000
FTUS44 KFWD 290900 AAA
TAFACT
TAF AMD
KACT 290904Z 2909/3006 02010KT P6SM BKN050
     FM291900 05008KT P6SM SKC=



000
FTUS44 KFWD 290500
TAFFTW
TAF
KFTW 290532Z 2906/3006 01011KT P6SM SCT050
     FM292000 07005KT P6SM SKC=



000
FTUS44 KFWD 290500
TAFACT
TAF
KACT 290532Z 2906/3006 04007KT P6SM BKN050
     FM292000 09007KT P6SM SKC=



000
FTUS44 KFWD 290500
TAFDFW
TAF
KDFW 290532Z 2906/3012 02012KT P6SM SCT050
      TEMPO 2906/2909 BKN025
     FM292000 07005KT P6SM SKC
     FM301000 14006KT P6SM SKC=



000
FTUS44 KFWD 290200 AAA
TAFDFW
TAF AMD
KDFW 290300Z 2903/3006 02010KT P6SM SCT050
     FM292000 09005KT P6SM SKC=



000
FTUS44 KFWD 290200 AAA
TAFACT
TAF AMD
KACT 290300Z 2903/2924 01010KT P6SM BKN050
     FM292000 11007KT P6SM SKC=



000
FTUS44 KFWD 290200 AAA
TAFFTW
TAF AMD
KFTW 290300Z 2903/2924 01010KT P6SM SCT050
     FM292000 09005KT P6SM SKC=



000
FTUS44 KFWD 282300
TAFDFW
TAF
KDFW 282330Z 2900/3006 01010KT P6SM BKN050
     FM291800 09005KT P6SM SKC=



000
FTUS44 KFWD 282300
TAFACT
TAF
KACT 282330Z 2900/2924 35010KT P6SM BKN050
     FM292000 11007KT P6SM SKC=



000
FTUS44 KFWD 282300
TAFFTW
TAF
KFTW 282330Z 2900/2924 01011KT P6SM BKN050
     FM291800 09005KT P6SM SKC=



000
FTUS44 KFWD 282000 AAA
TAFACT
TAF AMD
KACT 282045Z 2821/2918 27008KT P6SM SCT050
     FM282300 36008KT P6SM SCT050=



000
FTUS44 KFWD 282000 AAA
TAFDFW
TAF AMD
KDFW 282045Z 2821/2924 01011KT P6SM SCT050=



000
FTUS44 KFWD 282000 AAA
TAFFTW
TAF AMD
KFTW 282045Z 2821/2918 01011KT P6SM SCT050=



    US Dept of Commerce
    National Oceanic and Atmospheric Administration
    National Weather Service
    1325 East West Highway
    Silver Spring, MD 20910
    Page Author: NWS Internet Services Team
Disclaimer
Information Quality
Credits
Glossary
Privacy Policy
Freedom of Information Act (FOIA)
About Us
Career Opportunities